Time;durP1;ratioP1;P1;durP2;ratioP2;P2;SDS_P1;SDS_P2;PMS_P1;PMS_P2;Temp;Humidity;BMP_temperature;BMP_pressure;BME280_temperature;BME280_humidity;BME280_pressure;Samples;Min_cycle;Max_cycle;Signal;HPM_P1;HPM_P2
2023/05/02 05:00:49;;;;;;;;;26.00;25.67;;;;;;;;5765709;22;46395;-60
2023/05/02 05:03:14;;;;;;;;;29.67;25.33;;;;;;;;5022484;28;45287;-60
2023/05/02 05:05:40;;;;;;;;;29.00;26.00;;;;;;;;5023065;28;45313;-59
2023/05/02 05:08:05;;;;;;;;;33.33;28.67;;;;;;;;5022795;28;45314;-60
2023/05/02 05:10:30;;;;;;;;;37.33;32.00;;;;;;;;5022754;28;45304;-60
2023/05/02 05:12:55;;;;;;;;;34.00;29.67;;;;;;;;5022821;28;45220;-60
2023/05/02 05:15:22;;;;;;;;;36.67;27.00;;;;;;;;5021687;28;45298;-60
2023/05/02 05:17:48;;;;;;;;;31.33;30.33;;;;;;;;5020816;28;46868;-60
2023/05/02 05:20:13;;;;;;;;;34.67;30.67;;;;;;;;5022390;28;45352;-60
2023/05/02 05:22:40;;;;;;;;;36.33;29.33;;;;;;;;5022560;28;45146;-60
2023/05/02 05:25:05;;;;;;;;;32.00;28.33;;;;;;;;5037371;28;45627;-60
2023/05/02 05:27:32;;;;;;;;;31.00;25.00;;;;;;;;5021688;28;46263;-60
2023/05/02 05:29:57;;;;;;;;;31.33;28.00;;;;;;;;5022196;28;45413;-60
2023/05/02 05:32:23;;;;;;;;;31.67;27.33;;;;;;;;5022190;28;45471;-60
2023/05/02 05:34:51;;;;;;;;;36.00;29.00;;;;;;;;5021492;28;45501;-60
2023/05/02 05:37:17;;;;;;;;;33.33;27.67;;;;;;;;5021762;28;46136;-61
2023/05/02 05:39:42;;;;;;;;;38.00;32.00;;;;;;;;5022290;28;45217;-60
2023/05/02 05:42:08;;;;;;;;;33.67;28.33;;;;;;;;5019272;28;45461;-60
2023/05/02 05:44:33;;;;;;;;;32.00;29.00;;;;;;;;5021309;28;45286;-60
2023/05/02 05:46:58;;;;;;;;;37.00;28.33;;;;;;;;5016234;28;46019;-60
2023/05/02 05:49:24;;;;;;;;;31.33;29.33;;;;;;;;5021507;28;45420;-60
2023/05/02 05:51:49;;;;;;;;;26.00;25.00;;;;;;;;5022052;28;45272;-60
2023/05/02 05:54:15;;;;;;;;;35.00;29.33;;;;;;;;5021736;28;45242;-61
2023/05/02 05:56:40;;;;;;;;;28.00;26.33;;;;;;;;5021504;28;46053;-60
2023/05/02 05:59:06;;;;;;;;;29.00;29.00;;;;;;;;5020726;28;45196;-61
2023/05/02 06:01:31;;;;;;;;;32.33;29.33;;;;;;;;5021360;28;45335;-60
2023/05/02 06:03:57;;;;;;;;;35.33;31.67;;;;;;;;5015995;28;45655;-60
2023/05/02 06:06:23;;;;;;;;;34.33;28.00;;;;;;;;5017914;28;46999;-60
2023/05/02 06:08:48;;;;;;;;;32.33;29.33;;;;;;;;5018134;28;45558;-60
2023/05/02 06:11:13;;;;;;;;;37.67;29.33;;;;;;;;5018816;28;45803;-60
2023/05/02 06:13:38;;;;;;;;;28.00;21.00;;;;;;;;5015419;28;46066;-60
2023/05/02 06:16:04;;;;;;;;;36.67;31.67;;;;;;;;5019896;28;45991;-60
2023/05/02 06:18:29;;;;;;;;;22.67;18.67;;;;;;;;5018585;28;45323;-60
2023/05/02 06:20:54;;;;;;;;;26.00;25.00;;;;;;;;5018507;28;45386;-61
2023/05/02 06:23:19;;;;;;;;;33.33;30.00;;;;;;;;5019654;28;45629;-60
2023/05/02 06:25:45;;;;;;;;;30.67;23.67;;;;;;;;5021780;28;45347;-60
2023/05/02 06:28:10;;;;;;;;;26.33;25.00;;;;;;;;5019810;28;45461;-60
2023/05/02 06:30:35;;;;;;;;;28.67;24.67;;;;;;;;5018912;28;45413;-60
2023/05/02 06:33:02;;;;;;;;;25.67;23.00;;;;;;;;5022118;28;45485;-60
2023/05/02 06:35:28;;;;;;;;;31.67;30.00;;;;;;;;5015738;28;46254;-60
2023/05/02 06:37:53;;;;;;;;;31.00;26.00;;;;;;;;5017104;28;45390;-60
2023/05/02 06:40:18;;;;;;;;;29.67;26.67;;;;;;;;5015756;28;45197;-61
2023/05/02 06:42:43;;;;;;;;;33.67;26.00;;;;;;;;5019809;28;45221;-60
2023/05/02 06:45:09;;;;;;;;;26.67;22.67;;;;;;;;5017787;28;46274;-60
2023/05/02 06:47:34;;;;;;;;;25.67;21.67;;;;;;;;5014632;28;45346;-61
2023/05/02 06:49:59;;;;;;;;;26.00;24.00;;;;;;;;5034911;28;45442;-60
2023/05/02 06:52:24;;;;;;;;;27.33;25.00;;;;;;;;5019080;28;45228;-60
2023/05/02 06:54:50;;;;;;;;;18.33;16.33;;;;;;;;5019400;28;47010;-60
2023/05/02 06:57:15;;;;;;;;;31.33;22.00;;;;;;;;5019089;28;45140;-61
2023/05/02 06:59:40;;;;;;;;;32.33;26.00;;;;;;;;5019350;28;45215;-61
2023/05/02 07:02:05;;;;;;;;;27.00;24.00;;;;;;;;5017996;28;45734;-60
2023/05/02 07:04:31;;;;;;;;;24.00;24.00;;;;;;;;5018645;28;46296;-61
2023/05/02 07:06:56;;;;;;;;;27.67;21.00;;;;;;;;5019193;28;45292;-61
2023/05/02 07:09:21;;;;;;;;;25.33;22.33;;;;;;;;5019026;28;45213;-61
2023/05/02 07:11:46;;;;;;;;;26.33;24.67;;;;;;;;5019125;28;45521;-60
2023/05/02 07:14:12;;;;;;;;;29.00;26.00;;;;;;;;5019244;28;46068;-60
2023/05/02 07:16:37;;;;;;;;;25.67;25.67;;;;;;;;5018840;28;45326;-59
2023/05/02 07:19:05;;;;;;;;;27.67;25.00;;;;;;;;5018815;28;45290;-60
2023/05/02 07:21:31;;;;;;;;;29.00;28.33;;;;;;;;5019002;28;45442;-60
2023/05/02 07:23:56;;;;;;;;;26.00;24.00;;;;;;;;5017513;28;46834;-59
2023/05/02 07:26:22;;;;;;;;;30.33;27.67;;;;;;;;5009028;28;45393;-60
2023/05/02 07:28:47;;;;;;;;;26.33;26.33;;;;;;;;5019051;28;45290;-60
2023/05/02 07:31:12;;;;;;;;;26.67;25.67;;;;;;;;5019317;28;45316;-60
2023/05/02 07:33:37;;;;;;;;;33.33;27.00;;;;;;;;5017920;28;45255;-60
2023/05/02 07:36:03;;;;;;;;;27.33;24.00;;;;;;;;5019304;28;45203;-60
2023/05/02 07:38:28;;;;;;;;;30.67;29.33;;;;;;;;5018337;28;45386;-60
2023/05/02 07:40:56;;;;;;;;;33.00;29.33;;;;;;;;5019099;28;45406;-60
2023/05/02 07:43:21;;;;;;;;;29.67;28.00;;;;;;;;5018231;28;45607;-60
2023/05/02 07:45:47;;;;;;;;;25.33;24.00;;;;;;;;5011745;28;45514;-61
2023/05/02 07:48:12;;;;;;;;;26.33;22.67;;;;;;;;5014303;28;45180;-60
2023/05/02 07:50:37;;;;;;;;;23.67;23.67;;;;;;;;5018338;28;45236;-61
2023/05/02 07:53:02;;;;;;;;;29.67;25.67;;;;;;;;5018699;28;47040;-61
2023/05/02 07:55:29;;;;;;;;;25.33;24.33;;;;;;;;5018104;28;45442;-61
2023/05/02 07:57:54;;;;;;;;;26.00;24.00;;;;;;;;5018745;28;45345;-61
2023/05/02 08:00:20;;;;;;;;;30.67;29.33;;;;;;;;5017885;28;45224;-61
2023/05/02 08:02:45;;;;;;;;;27.33;25.00;;;;;;;;5018133;28;46083;-61
2023/05/02 08:05:10;;;;;;;;;30.33;28.33;;;;;;;;5018519;28;45299;-61
2023/05/02 08:07:35;;;;;;;;;26.33;22.33;;;;;;;;5020802;28;45253;-61
2023/05/02 08:10:01;;;;;;;;;30.33;24.00;;;;;;;;5022143;28;45331;-61
2023/05/02 08:12:26;;;;;;;;;27.67;24.33;;;;;;;;5021019;28;46165;-61
2023/05/02 08:14:51;;;;;;;;;28.00;27.33;;;;;;;;5022347;28;45333;-62
2023/05/02 08:17:16;;;;;;;;;24.33;23.67;;;;;;;;5021880;28;45297;-61
2023/05/02 08:19:42;;;;;;;;;29.67;25.67;;;;;;;;5021378;28;45265;-61
2023/05/02 08:22:07;;;;;;;;;25.33;22.33;;;;;;;;5021785;28;45493;-59
2023/05/02 08:24:32;;;;;;;;;22.67;20.00;;;;;;;;5007427;28;45399;-62
2023/05/02 08:26:57;;;;;;;;;22.67;21.33;;;;;;;;5032114;28;45445;-62
2023/05/02 08:29:23;;;;;;;;;24.00;23.33;;;;;;;;5021568;28;45347;-61
2023/05/02 08:31:48;;;;;;;;;23.00;21.33;;;;;;;;5021613;28;45895;-62
2023/05/02 08:34:13;;;;;;;;;24.33;22.33;;;;;;;;5021327;28;45293;-62
2023/05/02 08:36:38;;;;;;;;;26.00;23.00;;;;;;;;5021422;28;45298;-62
2023/05/02 08:39:04;;;;;;;;;29.67;27.00;;;;;;;;5021518;28;45261;-59
2023/05/02 08:41:30;;;;;;;;;22.00;22.00;;;;;;;;5021090;28;45260;-63
2023/05/02 08:43:55;;;;;;;;;17.00;16.00;;;;;;;;5021336;28;45330;-62
2023/05/02 08:46:21;;;;;;;;;15.67;14.00;;;;;;;;5036559;28;45260;-59
2023/05/02 08:48:47;;;;;;;;;16.50;13.50;;;;;;;;5020976;28;45330;-59
2023/05/02 08:51:14;;;;;;;;;18.33;17.00;;;;;;;;5021541;28;45466;-61
2023/05/02 08:53:40;;;;;;;;;18.67;17.33;;;;;;;;5020725;28;45477;-61
2023/05/02 08:56:06;;;;;;;;;18.33;16.67;;;;;;;;5036812;28;45469;-61
2023/05/02 08:58:31;;;;;;;;;18.33;18.33;;;;;;;;5020768;28;45418;-61
2023/05/02 09:00:59;;;;;;;;;19.00;15.67;;;;;;;;5020795;28;45363;-61
2023/05/02 09:03:25;;;;;;;;;18.33;17.33;;;;;;;;5020383;28;45458;-61
2023/05/02 09:05:51;;;;;;;;;11.67;11.33;;;;;;;;5021300;28;45354;-61
2023/05/02 09:08:20;;;;;;;;;15.67;14.67;;;;;;;;5021279;28;45522;-62
2023/05/02 09:10:46;;;;;;;;;16.67;16.67;;;;;;;;5020777;28;46337;-61
2023/05/02 09:13:29;;;;;;;;;18.00;14.33;;;;;;;;5020710;28;45434;-61
2023/05/02 09:16:03;;;;;;;;;16.00;16.00;;;;;;;;5020918;28;45510;-61
2023/05/02 09:18:35;;;;;;;;;16.00;16.00;;;;;;;;5019096;28;45461;-61
2023/05/02 09:21:05;;;;;;;;;19.67;18.00;;;;;;;;5020548;28;46465;-62
2023/05/02 09:23:42;;;;;;;;;16.67;15.00;;;;;;;;5020427;28;45423;-61
2023/05/02 09:26:10;;;;;;;;;15.33;15.33;;;;;;;;5009841;28;45383;-61
2023/05/02 09:28:46;;;;;;;;;18.00;16.33;;;;;;;;5020559;28;45292;-61
2023/05/02 09:31:15;;;;;;;;;14.67;14.67;;;;;;;;5010846;28;46243;-61
2023/05/02 09:33:41;;;;;;;;;12.00;12.00;;;;;;;;5019833;28;45739;-61
2023/05/02 09:36:07;;;;;;;;;14.33;11.67;;;;;;;;5021057;28;45403;-61
2023/05/02 09:38:32;;;;;;;;;18.67;17.67;;;;;;;;5020494;28;45313;-61
2023/05/02 09:40:58;;;;;;;;;13.67;13.67;;;;;;;;5035591;28;47294;-61
2023/05/02 09:43:23;;;;;;;;;17.00;15.33;;;;;;;;5019675;28;45319;-62
2023/05/02 09:45:58;;;;;;;;;18.00;16.00;;;;;;;;5013580;28;45441;-61
2023/05/02 09:48:25;;;;;;;;;17.33;17.33;;;;;;;;5018304;28;45297;-61
2023/05/02 09:50:50;;;;;;;;;14.00;14.00;;;;;;;;5020497;28;45365;-61
2023/05/02 09:53:15;;;;;;;;;19.00;17.00;;;;;;;;5020077;28;45495;-61
2023/05/02 09:55:40;;;;;;;;;21.00;21.00;;;;;;;;5020304;28;45303;-61
2023/05/02 09:58:06;;;;;;;;;17.00;16.67;;;;;;;;5020257;28;45233;-61
2023/05/02 10:00:41;;;;;;;;;15.33;15.00;;;;;;;;5019704;28;47012;-62
2023/05/02 10:03:07;;;;;;;;;16.67;16.67;;;;;;;;5017216;28;45295;-59
2023/05/02 10:05:35;;;;;;;;;16.00;15.00;;;;;;;;5019986;28;45359;-61
2023/05/02 10:08:00;;;;;;;;;14.67;14.33;;;;;;;;5020257;28;45363;-61
2023/05/02 10:10:26;;;;;;;;;16.33;15.00;;;;;;;;5019446;28;45597;-61
2023/05/02 10:12:53;;;;;;;;;14.33;14.33;;;;;;;;5019955;28;45347;-59
2023/05/02 10:15:21;;;;;;;;;15.00;14.00;;;;;;;;5035211;28;45314;-61
2023/05/02 10:17:50;;;;;;;;;13.33;13.33;;;;;;;;5019667;28;45365;-62
2023/05/02 10:20:21;;;;;;;;;17.00;16.33;;;;;;;;5018588;28;47324;-61
2023/05/02 10:22:48;;;;;;;;;17.33;15.67;;;;;;;;5019553;28;45323;-60
2023/05/02 10:25:13;;;;;;;;;17.00;17.00;;;;;;;;5008750;28;45471;-59
2023/05/02 10:27:39;;;;;;;;;20.00;16.67;;;;;;;;5019254;28;45327;-60
2023/05/02 10:30:05;;;;;;;;;18.00;18.00;;;;;;;;5019343;28;45704;-60
2023/05/02 10:32:32;;;;;;;;;18.67;17.33;;;;;;;;5019053;28;45702;-60
2023/05/02 10:35:01;;;;;;;;;20.00;19.00;;;;;;;;5019675;28;45164;-60
2023/05/02 10:37:28;;;;;;;;;17.33;17.33;;;;;;;;5019061;28;45324;-60
2023/05/02 10:39:53;;;;;;;;;31.33;29.33;;;;;;;;5019454;28;45443;-61
2023/05/02 10:42:19;;;;;;;;;24.00;19.00;;;;;;;;5018669;28;45317;-61
2023/05/02 10:44:45;;;;;;;;;20.67;20.00;;;;;;;;5019816;28;45213;-61
2023/05/02 10:47:17;;;;;;;;;25.00;23.67;;;;;;;;5008039;28;45449;-61
2023/05/02 10:49:49;;;;;;;;;19.33;17.67;;;;;;;;5018937;28;46187;-62
2023/05/02 10:52:31;;;;;;;;;21.00;21.00;;;;;;;;5019427;28;45408;-61
2023/05/02 10:55:29;;;;;;;;;22.33;22.33;;;;;;;;5019381;28;45514;-62
2023/05/02 10:58:00;;;;;;;;;24.33;24.33;;;;;;;;5017846;28;45469;-61
2023/05/02 11:00:32;;;;;;;;;23.67;23.67;;;;;;;;5018330;28;46048;-61
2023/05/02 11:02:58;;;;;;;;;21.00;21.00;;;;;;;;5018947;28;45465;-62
2023/05/02 11:05:23;;;;;;;;;24.67;23.67;;;;;;;;5019152;28;45465;-62
2023/05/02 11:07:49;;;;;;;;;25.00;22.00;;;;;;;;5034263;28;45369;-62
2023/05/02 11:10:14;;;;;;;;;21.33;19.33;;;;;;;;5018721;28;45393;-62
2023/05/02 11:12:47;;;;;;;;;25.67;18.33;;;;;;;;5018209;28;45432;-62
2023/05/02 11:15:13;;;;;;;;;16.00;16.00;;;;;;;;5034525;28;45427;-63
2023/05/02 11:17:56;;;;;;;;;19.33;18.00;;;;;;;;5018157;28;45679;-62
2023/05/02 11:20:22;;;;;;;;;15.33;14.67;;;;;;;;5018370;28;45209;-62
2023/05/02 11:22:48;;;;;;;;;16.67;16.67;;;;;;;;5018613;28;45563;-62
2023/05/02 11:25:29;;;;;;;;;20.33;18.00;;;;;;;;5008137;28;45335;-62
2023/05/02 11:27:55;;;;;;;;;21.33;18.00;;;;;;;;5008555;28;45376;-62
2023/05/02 11:30:40;;;;;;;;;20.33;18.00;;;;;;;;5033395;28;47739;-64
2023/05/02 11:33:06;;;;;;;;;17.00;17.00;;;;;;;;5010628;28;45371;-62
2023/05/02 11:35:33;;;;;;;;;18.33;16.33;;;;;;;;5018164;28;45674;-62
2023/05/02 11:38:07;;;;;;;;;13.67;13.67;;;;;;;;5018866;28;45427;-62
2023/05/02 11:40:32;;;;;;;;;16.33;16.33;;;;;;;;5015267;28;45327;-62
2023/05/02 11:42:59;;;;;;;;;17.67;15.67;;;;;;;;5018472;28;45377;-63
2023/05/02 11:45:37;;;;;;;;;13.67;13.00;;;;;;;;5014475;28;45401;-62
2023/05/02 11:48:03;;;;;;;;;17.00;16.33;;;;;;;;5014245;28;45263;-62
2023/05/02 11:50:29;;;;;;;;;17.33;16.00;;;;;;;;5018086;28;45411;-63
2023/05/02 11:52:54;;;;;;;;;13.00;13.00;;;;;;;;5018481;28;45173;-62
2023/05/02 11:55:20;;;;;;;;;15.00;14.00;;;;;;;;5018090;28;45274;-63
2023/05/02 11:57:45;;;;;;;;;12.67;12.00;;;;;;;;5018526;28;45557;-63
2023/05/02 12:00:11;;;;;;;;;14.33;14.33;;;;;;;;5017011;28;48572;-64
2023/05/02 12:02:43;;;;;;;;;17.00;16.33;;;;;;;;5017676;28;45307;-63
2023/05/02 12:05:09;;;;;;;;;20.67;18.00;;;;;;;;5017237;28;45264;-63
2023/05/02 12:07:36;;;;;;;;;20.33;18.00;;;;;;;;5017765;28;45279;-63
2023/05/02 12:10:02;;;;;;;;;16.00;16.00;;;;;;;;5018419;28;45624;-63
2023/05/02 12:12:27;;;;;;;;;15.00;13.67;;;;;;;;5017575;28;45453;-63
2023/05/02 12:14:52;;;;;;;;;12.67;12.67;;;;;;;;5018597;28;45336;-63
2023/05/02 12:17:18;;;;;;;;;19.00;15.67;;;;;;;;5018019;28;45389;-62
2023/05/02 12:19:43;;;;;;;;;15.00;15.00;;;;;;;;5018346;28;46062;-63
2023/05/02 12:22:09;;;;;;;;;13.33;13.33;;;;;;;;5018201;28;45322;-62
2023/05/02 12:24:35;;;;;;;;;12.67;12.67;;;;;;;;5013013;28;45387;-62
2023/05/02 12:27:13;;;;;;;;;14.00;14.00;;;;;;;;5013381;28;45595;-63
2023/05/02 12:29:39;;;;;;;;;14.00;14.00;;;;;;;;5007887;28;45253;-62
2023/05/02 12:32:05;;;;;;;;;15.00;15.00;;;;;;;;5017696;28;45485;-63
2023/05/02 12:34:34;;;;;;;;;13.33;12.67;;;;;;;;5017630;28;45245;-62
2023/05/02 12:37:00;;;;;;;;;15.67;13.33;;;;;;;;5017837;28;45268;-63
2023/05/02 12:39:34;;;;;;;;;16.67;14.33;;;;;;;;5017428;28;46224;-62
2023/05/02 12:42:07;;;;;;;;;11.00;11.00;;;;;;;;5033226;28;45437;-62
2023/05/02 12:44:36;;;;;;;;;13.33;12.67;;;;;;;;5017705;28;45366;-62
2023/05/02 12:47:01;;;;;;;;;12.33;12.33;;;;;;;;5006001;28;45547;-62
2023/05/02 12:49:26;;;;;;;;;13.67;13.67;;;;;;;;5017224;28;46219;-62
2023/05/02 12:51:52;;;;;;;;;12.00;12.00;;;;;;;;5017991;28;45426;-62
2023/05/02 12:54:20;;;;;;;;;11.67;10.67;;;;;;;;5021935;28;45337;-62
2023/05/02 12:56:45;;;;;;;;;12.00;12.00;;;;;;;;5021138;28;45528;-62
2023/05/02 12:59:24;;;;;;;;;11.00;11.00;;;;;;;;5021206;28;46159;-62
2023/05/02 13:01:50;;;;;;;;;9.00;9.00;;;;;;;;5035137;28;45382;-62
2023/05/02 13:04:15;;;;;;;;;11.67;11.00;;;;;;;;5020872;28;45317;-62
2023/05/02 13:06:41;;;;;;;;;9.33;9.33;;;;;;;;5020568;28;45449;-62
2023/05/02 13:09:06;;;;;;;;;9.67;9.67;;;;;;;;5020808;28;46169;-62
2023/05/02 13:11:31;;;;;;;;;14.00;10.00;;;;;;;;5019236;28;45406;-62
2023/05/02 13:13:59;;;;;;;;;12.33;9.33;;;;;;;;5021003;28;45307;-62
2023/05/02 13:16:24;;;;;;;;;12.00;12.00;;;;;;;;5020579;28;45456;-62
2023/05/02 13:18:50;;;;;;;;;6.00;6.00;;;;;;;;5020465;28;46281;-62
2023/05/02 13:21:15;;;;;;;;;9.67;9.67;;;;;;;;5020646;28;45351;-62
2023/05/02 13:23:40;;;;;;;;;9.33;9.33;;;;;;;;5020414;28;45529;-61
2023/05/02 13:26:05;;;;;;;;;7.33;7.00;;;;;;;;5009742;28;45458;-62
2023/05/02 13:28:32;;;;;;;;;11.33;8.67;;;;;;;;5020378;28;46108;-62
2023/05/02 13:30:57;;;;;;;;;11.33;9.33;;;;;;;;5020780;28;45455;-63
2023/05/02 13:33:22;;;;;;;;;11.67;10.33;;;;;;;;5020361;28;45386;-63
2023/05/02 13:35:48;;;;;;;;;9.33;9.33;;;;;;;;5020676;28;45453;-61
2023/05/02 13:38:13;;;;;;;;;9.33;9.00;;;;;;;;5020689;28;45955;-62
2023/05/02 13:40:38;;;;;;;;;9.33;9.00;;;;;;;;5018530;28;45515;-62
2023/05/02 13:43:03;;;;;;;;;8.67;8.00;;;;;;;;5020913;28;45414;-62
2023/05/02 13:45:28;;;;;;;;;9.00;9.00;;;;;;;;5020158;28;45438;-62
2023/05/02 13:47:54;;;;;;;;;11.33;10.67;;;;;;;;5020112;28;46024;-63
2023/05/02 13:50:19;;;;;;;;;10.33;9.67;;;;;;;;5020003;28;45465;-62
2023/05/02 13:52:44;;;;;;;;;12.00;9.67;;;;;;;;5020815;28;45309;-62
2023/05/02 13:55:10;;;;;;;;;10.00;9.33;;;;;;;;5020483;28;45306;-61
2023/05/02 13:57:35;;;;;;;;;13.67;12.33;;;;;;;;5034852;28;46119;-61
2023/05/02 14:00:00;;;;;;;;;13.00;12.00;;;;;;;;5020324;28;45545;-61
2023/05/02 14:02:25;;;;;;;;;11.00;11.00;;;;;;;;5019376;28;45708;-62
2023/05/02 14:04:51;;;;;;;;;10.33;9.00;;;;;;;;5019515;28;45378;-61
2023/05/02 14:07:16;;;;;;;;;9.00;9.00;;;;;;;;5020054;28;47037;-61
2023/05/02 14:09:41;;;;;;;;;11.00;9.00;;;;;;;;5019704;28;45413;-61
2023/05/02 14:12:07;;;;;;;;;10.67;10.00;;;;;;;;5020137;28;45581;-61
2023/05/02 14:14:32;;;;;;;;;8.00;8.00;;;;;;;;5019701;28;45395;-61
2023/05/02 14:16:58;;;;;;;;;9.00;9.00;;;;;;;;5020032;28;46117;-61
2023/05/02 14:19:23;;;;;;;;;10.67;9.00;;;;;;;;5033065;28;45745;-61
2023/05/02 14:21:49;;;;;;;;;12.00;7.33;;;;;;;;5020377;28;45304;-61
2023/05/02 14:24:15;;;;;;;;;9.00;7.67;;;;;;;;5016043;28;45565;-62
2023/05/02 14:26:40;;;;;;;;;9.67;9.67;;;;;;;;5011853;28;46856;-62
2023/05/02 14:29:06;;;;;;;;;9.67;9.67;;;;;;;;5019457;28;45241;-61
2023/05/02 14:31:31;;;;;;;;;8.67;8.67;;;;;;;;5019696;28;45237;-61
2023/05/02 14:33:56;;;;;;;;;6.67;6.67;;;;;;;;5019452;28;45207;-61
2023/05/02 14:36:21;;;;;;;;;10.00;9.00;;;;;;;;5019634;28;45335;-62
2023/05/02 14:38:46;;;;;;;;;10.00;9.33;;;;;;;;5019520;28;45149;-61
2023/05/02 14:41:12;;;;;;;;;9.67;9.00;;;;;;;;5019820;28;45206;-61
2023/05/02 14:43:38;;;;;;;;;11.00;7.00;;;;;;;;5019168;28;45338;-61
2023/05/02 14:46:03;;;;;;;;;8.33;8.33;;;;;;;;5010387;28;46150;-61
2023/05/02 14:48:28;;;;;;;;;11.00;9.00;;;;;;;;5017519;28;45322;-61
2023/05/02 14:50:54;;;;;;;;;8.00;6.00;;;;;;;;5019721;28;45339;-61
2023/05/02 14:53:20;;;;;;;;;9.00;7.33;;;;;;;;5018964;28;45564;-61
2023/05/02 14:55:45;;;;;;;;;8.00;8.00;;;;;;;;5019155;28;47021;-61
2023/05/02 14:58:10;;;;;;;;;8.33;6.67;;;;;;;;5019119;28;45335;-61
2023/05/02 15:00:36;;;;;;;;;8.00;8.00;;;;;;;;5018718;28;45257;-61
2023/05/02 15:03:03;;;;;;;;;6.67;6.33;;;;;;;;5018918;28;45554;-61
2023/05/02 15:05:28;;;;;;;;;7.00;7.00;;;;;;;;5018971;28;45284;-61
2023/05/02 15:07:54;;;;;;;;;9.67;8.67;;;;;;;;5018489;28;45260;-61
2023/05/02 15:10:19;;;;;;;;;6.67;6.00;;;;;;;;5018840;28;45579;-61
2023/05/02 15:12:45;;;;;;;;;7.33;7.00;;;;;;;;5018885;28;45183;-61
2023/05/02 15:15:10;;;;;;;;;8.33;7.33;;;;;;;;5018840;28;46293;-61
2023/05/02 15:17:36;;;;;;;;;9.00;9.00;;;;;;;;5017557;28;45226;-61
2023/05/02 15:20:03;;;;;;;;;9.00;7.67;;;;;;;;5019290;28;45222;-61
2023/05/02 15:22:28;;;;;;;;;7.33;7.33;;;;;;;;5018521;28;45324;-61
2023/05/02 15:24:54;;;;;;;;;9.00;6.67;;;;;;;;5009856;28;46963;-61
2023/05/02 15:27:19;;;;;;;;;7.67;7.67;;;;;;;;5016304;28;45527;-61
2023/05/02 15:29:44;;;;;;;;;9.00;9.00;;;;;;;;5019347;28;45388;-61
2023/05/02 15:32:09;;;;;;;;;7.00;7.00;;;;;;;;5018646;28;45288;-61
2023/05/02 15:34:35;;;;;;;;;9.67;8.33;;;;;;;;5018537;28;45426;-61
2023/05/02 15:37:00;;;;;;;;;7.67;7.67;;;;;;;;5018891;28;45402;-61
2023/05/02 15:39:26;;;;;;;;;8.00;8.00;;;;;;;;5033862;28;45424;-60
2023/05/02 15:41:52;;;;;;;;;10.00;9.00;;;;;;;;5034072;28;45463;-61
2023/05/02 15:44:18;;;;;;;;;8.00;6.33;;;;;;;;5018721;28;46817;-61
2023/05/02 15:46:45;;;;;;;;;9.33;8.00;;;;;;;;5033730;28;45800;-61
2023/05/02 15:49:10;;;;;;;;;7.00;7.00;;;;;;;;5018552;28;45364;-61
2023/05/02 15:51:35;;;;;;;;;9.00;6.67;;;;;;;;5018241;28;45323;-61
2023/05/02 15:54:01;;;;;;;;;7.00;7.00;;;;;;;;5018680;28;46371;-61
2023/05/02 15:56:26;;;;;;;;;7.67;6.67;;;;;;;;5017662;28;45481;-61
2023/05/02 15:58:51;;;;;;;;;8.00;8.00;;;;;;;;5018849;28;45328;-61
2023/05/02 16:01:16;;;;;;;;;6.00;6.00;;;;;;;;5018191;28;45446;-61
2023/05/02 16:03:41;;;;;;;;;10.00;8.33;;;;;;;;5017868;28;45288;-61
2023/05/02 16:06:07;;;;;;;;;9.33;7.33;;;;;;;;5018295;28;45500;-61
2023/05/02 16:08:32;;;;;;;;;7.00;6.00;;;;;;;;5018536;28;45276;-61
2023/05/02 16:11:00;;;;;;;;;7.00;7.00;;;;;;;;5018221;28;45198;-61
2023/05/02 16:13:25;;;;;;;;;8.33;7.00;;;;;;;;5017897;28;46647;-61
2023/05/02 16:15:54;;;;;;;;;7.00;7.00;;;;;;;;5017924;28;45356;-60
2023/05/02 16:18:21;;;;;;;;;8.33;7.00;;;;;;;;5017684;28;45354;-61
2023/05/02 16:20:48;;;;;;;;;6.00;6.00;;;;;;;;5018294;28;45576;-61
2023/05/02 16:23:14;;;;;;;;;2.00;2.00;;;;;;;;5018147;28;45985;-61
2023/05/02 16:25:39;;;;;;;;;6.33;5.67;;;;;;;;5006638;28;45417;-61
2023/05/02 16:28:04;;;;;;;;;6.67;6.67;;;;;;;;5020431;28;45373;-61
2023/05/02 16:30:30;;;;;;;;;5.00;5.00;;;;;;;;5021302;28;45399;-61
2023/05/02 16:32:55;;;;;;;;;6.67;5.33;;;;;;;;5020391;28;46278;-61
2023/05/02 16:35:20;;;;;;;;;8.67;6.67;;;;;;;;5020232;28;45465;-61
2023/05/02 16:37:45;;;;;;;;;9.33;9.00;;;;;;;;5021405;28;45417;-60
2023/05/02 16:40:11;;;;;;;;;8.33;7.00;;;;;;;;5021470;28;45501;-60
2023/05/02 16:42:37;;;;;;;;;5.00;5.00;;;;;;;;5020061;28;46145;-60
2023/05/02 16:45:02;;;;;;;;;7.33;6.00;;;;;;;;5020596;28;45475;-60
2023/05/02 16:47:28;;;;;;;;;4.33;4.33;;;;;;;;5020188;28;45285;-60
2023/05/02 16:49:57;;;;;;;;;7.00;6.00;;;;;;;;5021263;28;45253;-60
2023/05/02 16:52:22;;;;;;;;;7.67;6.00;;;;;;;;5021310;28;46107;-61
2023/05/02 16:54:48;;;;;;;;;6.00;6.00;;;;;;;;5021103;28;45798;-60
2023/05/02 16:57:18;;;;;;;;;5.33;5.00;;;;;;;;5021222;28;45589;-61
2023/05/02 16:59:43;;;;;;;;;5.33;5.33;;;;;;;;5036597;28;45215;-60
2023/05/02 17:02:08;;;;;;;;;7.00;6.00;;;;;;;;5020545;28;46162;-61
2023/05/02 17:04:34;;;;;;;;;6.00;6.00;;;;;;;;5034336;28;45655;-62
2023/05/02 17:06:59;;;;;;;;;7.33;7.33;;;;;;;;5020557;28;45490;-61
2023/05/02 17:09:24;;;;;;;;;8.00;5.33;;;;;;;;5020711;28;45323;-61
2023/05/02 17:11:50;;;;;;;;;7.00;7.00;;;;;;;;5020876;28;46711;-63
2023/05/02 17:14:15;;;;;;;;;6.00;6.00;;;;;;;;5021118;28;45331;-61
2023/05/02 17:16:40;;;;;;;;;5.00;5.00;;;;;;;;5020568;28;45149;-61
2023/05/02 17:19:06;;;;;;;;;8.00;6.67;;;;;;;;5020512;28;45769;-60
2023/05/02 17:21:31;;;;;;;;;6.67;6.33;;;;;;;;5020536;28;46904;-61
2023/05/02 17:23:56;;;;;;;;;7.00;7.00;;;;;;;;5019485;28;45272;-61
2023/05/02 17:26:22;;;;;;;;;8.67;7.00;;;;;;;;5010818;28;45284;-61
2023/05/02 17:28:49;;;;;;;;;5.33;5.33;;;;;;;;5020555;28;45400;-61
2023/05/02 17:31:14;;;;;;;;;7.33;7.00;;;;;;;;5020750;28;46228;-61
2023/05/02 17:33:40;;;;;;;;;7.00;7.00;;;;;;;;5019802;28;45330;-61
2023/05/02 17:36:06;;;;;;;;;10.00;7.67;;;;;;;;5021109;28;45398;-61
2023/05/02 17:38:31;;;;;;;;;6.00;5.33;;;;;;;;5019572;28;45644;-60
2023/05/02 17:40:56;;;;;;;;;6.33;5.67;;;;;;;;5020211;28;47172;-61
2023/05/02 17:43:21;;;;;;;;;7.00;7.00;;;;;;;;5018962;28;45326;-61
2023/05/02 17:45:47;;;;;;;;;7.00;7.00;;;;;;;;5013840;28;45418;-61
2023/05/02 17:48:12;;;;;;;;;8.33;7.00;;;;;;;;5016064;28;45454;-60
2023/05/02 17:50:38;;;;;;;;;7.33;7.33;;;;;;;;5020090;28;46210;-60
2023/05/02 17:53:04;;;;;;;;;6.00;6.00;;;;;;;;5020507;28;45263;-61
2023/05/02 17:55:29;;;;;;;;;7.33;7.33;;;;;;;;5020129;28;45283;-61
2023/05/02 17:57:57;;;;;;;;;10.00;7.67;;;;;;;;5020377;28;45329;-61
2023/05/02 18:00:22;;;;;;;;;6.00;6.00;;;;;;;;5019741;28;46982;-61
2023/05/02 18:02:48;;;;;;;;;9.00;8.67;;;;;;;;5019883;28;45466;-61
2023/05/02 18:05:13;;;;;;;;;6.67;6.67;;;;;;;;5020695;28;45465;-61
2023/05/02 18:07:38;;;;;;;;;10.00;8.33;;;;;;;;5020013;28;45772;-61
2023/05/02 18:10:03;;;;;;;;;10.00;8.33;;;;;;;;5020216;28;46130;-60
2023/05/02 18:12:30;;;;;;;;;8.00;6.33;;;;;;;;5019316;28;45486;-60
2023/05/02 18:14:55;;;;;;;;;8.33;7.00;;;;;;;;5020433;28;45291;-60
2023/05/02 18:17:21;;;;;;;;;8.33;7.67;;;;;;;;5019206;28;45362;-63
2023/05/02 18:19:49;;;;;;;;;9.67;8.00;;;;;;;;5020221;28;46953;-62
2023/05/02 18:22:15;;;;;;;;;10.33;7.33;;;;;;;;5019919;28;45263;-61
2023/05/02 18:24:40;;;;;;;;;11.00;9.00;;;;;;;;5014775;28;45236;-61
2023/05/02 18:27:06;;;;;;;;;10.00;10.00;;;;;;;;5016268;28;45326;-61
2023/05/02 18:29:34;;;;;;;;;9.00;8.67;;;;;;;;5019411;28;46042;-61
2023/05/02 18:31:59;;;;;;;;;9.00;8.00;;;;;;;;5019626;28;45368;-61
2023/05/02 18:34:29;;;;;;;;;8.33;7.00;;;;;;;;5019660;28;45466;-62
2023/05/02 18:36:57;;;;;;;;;9.00;9.00;;;;;;;;5035325;28;45407;-61
2023/05/02 18:39:22;;;;;;;;;11.33;10.00;;;;;;;;5019296;28;46308;-61
2023/05/02 18:41:47;;;;;;;;;12.00;12.00;;;;;;;;5019562;28;45145;-61
2023/05/02 18:44:12;;;;;;;;;10.00;10.00;;;;;;;;5020104;28;45324;-61
2023/05/02 18:46:37;;;;;;;;;6.67;6.67;;;;;;;;5009305;28;45403;-61
2023/05/02 18:49:03;;;;;;;;;12.00;10.67;;;;;;;;5019424;28;46124;-61
2023/05/02 18:51:28;;;;;;;;;9.33;8.67;;;;;;;;5018894;28;45916;-61
2023/05/02 18:53:54;;;;;;;;;8.00;7.33;;;;;;;;5020218;28;45469;-62
2023/05/02 18:56:20;;;;;;;;;6.33;5.33;;;;;;;;5018971;28;45268;-62
2023/05/02 18:58:45;;;;;;;;;10.33;8.67;;;;;;;;5019636;28;46168;-61
2023/05/02 19:01:14;;;;;;;;;11.00;8.33;;;;;;;;5018961;28;45271;-61
2023/05/02 19:03:41;;;;;;;;;7.00;6.67;;;;;;;;5019087;28;45442;-61
2023/05/02 19:06:07;;;;;;;;;7.33;7.33;;;;;;;;5019456;28;45237;-61
2023/05/02 19:08:32;;;;;;;;;8.50;8.50;;;;;;;;5019113;28;45350;-61
2023/05/02 19:10:57;;;;;;;;;9.67;9.00;;;;;;;;5034392;28;45272;-61
2023/05/02 19:13:25;;;;;;;;;5.00;5.00;;;;;;;;5019058;28;45354;-62
2023/05/02 19:15:50;;;;;;;;;6.00;5.00;;;;;;;;5019318;28;45750;-61
2023/05/02 19:18:16;;;;;;;;;8.00;6.00;;;;;;;;5019205;28;45517;-61
2023/05/02 19:20:41;;;;;;;;;5.67;5.67;;;;;;;;5018571;28;45362;-61